CheckWX is a tool to help pilots better visualize weather data.  It is not intended as a substitute for an official pre-flight weather briefing.

11:54:25 UTC

URRP METAR
Platov International Airport
Rostov Oblast, Russian Federation
Current

54 mins ago

URRP 121100Z 09003MPS 0600 0350NE R05/1000D FG VV001 09/08 Q1026 R05/120060 TEMPO 0050 FG RMK QBB030 OBST OBSC QFE765/1020
Observed
Nov-12 @ 11:00 UTC
Wind
  • 090° at 6 KTS
Visibility
600 meters
Flight Rules
LIFR
Conditions
Fog
Cloud Levels
  • Vertical visibility at 100' AGL
Temperature
C / 48°F
Dewpoint
C / 46°F
Humidity
94%
Altimeter
30.3" Hg
Pressure
1025.92 hPa
Previous

2 hours ago

URRP 121000Z 06002MPS 0450 0200NE R05/0550U FG VV001 08/08 Q1026 R05/190060 TEMPO 0050 FG RMK QBB040 OBST OBSC QFE765/1020
Observed
Nov-12 @ 10:00 UTC
Wind
  • 060° at 4 KTS
Visibility
500 meters
Flight Rules
LIFR
Conditions
Fog
Cloud Levels
  • Vertical visibility at 100' AGL
Temperature
C / 46°F
Dewpoint
C / 46°F
Humidity
100%
Altimeter
30.3" Hg
Pressure
1025.92 hPa
Previous

2 hours ago

URRP 120930Z 10003MPS 0300 0200NE R05/0500N FG VV000 08/08 Q1026 R05/190060 TEMPO 0050 FG RMK QBB020 OBST OBSC QFE765/1020
Observed
Nov-12 @ 09:30 UTC
Wind
  • 100° at 6 KTS
Visibility
300 meters
Flight Rules
LIFR
Conditions
Fog
Cloud Levels
  • Vertical visibility
Temperature
C / 46°F
Dewpoint
C / 46°F
Humidity
100%
Altimeter
30.3" Hg
Pressure
1025.92 hPa